Time;durP1;ratioP1;P1;durP2;ratioP2;P2;SDS_P1;SDS_P2;PMS_P1;PMS_P2;Temp;Humidity;BMP_temperature;BMP_pressure;BME280_temperature;BME280_humidity;BME280_pressure;Samples;Min_cycle;Max_cycle;Signal;HPM_P1;HPM_P2
2021/10/27 00:00:18;;;;;;;4.93;2.93;;;13.40;99.90;;;;;;5046315;28;20472;-66
2021/10/27 00:02:48;;;;;;;7.10;3.53;;;13.30;99.90;;;;;;5046187;28;20471;-67
2021/10/27 00:05:19;;;;;;;8.43;3.80;;;13.30;99.90;;;;;;5045728;28;20484;-67
2021/10/27 00:07:51;;;;;;;12.23;3.90;;;13.30;99.90;;;;;;5047135;28;20471;-65
2021/10/27 00:10:24;;;;;;;14.60;5.63;;;13.40;99.90;;;;;;5040050;28;20472;-66
2021/10/27 00:12:55;;;;;;;10.07;3.80;;;13.40;99.90;;;;;;5045800;28;20468;-68
2021/10/27 00:15:26;;;;;;;6.60;2.83;;;13.40;99.90;;;;;;5041830;28;20478;-66
2021/10/27 00:17:57;;;;;;;6.07;2.77;;;13.30;99.90;;;;;;5048189;28;20479;-66
2021/10/27 00:20:28;;;;;;;6.60;2.57;;;13.40;99.90;;;;;;5038067;28;20475;-65
2021/10/27 00:22:59;;;;;;;6.70;2.70;;;13.40;99.90;;;;;;5037527;28;20469;-65
2021/10/27 00:25:31;;;;;;;4.63;2.03;;;13.50;99.90;;;;;;5049174;28;20487;-65
2021/10/27 00:28:02;;;;;;;5.00;2.10;;;13.60;99.90;;;;;;5047485;28;20544;-65
2021/10/27 00:30:33;;;;;;;5.27;2.00;;;13.50;99.90;;;;;;5044246;28;20927;-65
2021/10/27 00:33:04;;;;;;;3.50;2.10;;;13.50;99.90;;;;;;5041650;28;20473;-65
2021/10/27 00:35:35;;;;;;;3.80;1.80;;;13.50;99.90;;;;;;5039131;28;20476;-65
2021/10/27 00:38:06;;;;;;;6.00;3.63;;;13.50;99.90;;;;;;5043336;28;20471;-66
2021/10/27 00:40:38;;;;;;;7.00;2.13;;;13.50;99.90;;;;;;5036457;28;20483;-65
2021/10/27 00:43:09;;;;;;;4.20;1.87;;;13.40;99.90;;;;;;5038758;28;20969;-66
2021/10/27 00:45:40;;;;;;;5.37;2.43;;;13.30;99.90;;;;;;5042501;28;21026;-65
2021/10/27 00:48:10;;;;;;;5.47;1.80;;;13.30;99.90;;;;;;5039893;28;20497;-66
2021/10/27 00:50:41;;;;;;;3.57;1.80;;;13.30;99.90;;;;;;5042848;28;20934;-66
2021/10/27 00:53:12;;;;;;;3.73;1.90;;;13.20;99.90;;;;;;5044311;28;20476;-67
2021/10/27 00:55:45;;;;;;;4.23;2.00;;;13.20;99.90;;;;;;5044864;28;20483;-67
2021/10/27 00:58:16;;;;;;;6.07;2.70;;;13.20;99.90;;;;;;5043678;28;20659;-66
2021/10/27 01:00:47;;;;;;;4.10;2.00;;;13.20;99.90;;;;;;5043628;28;20476;-67
2021/10/27 01:03:18;;;;;;;3.13;2.20;;;13.20;99.90;;;;;;5041945;28;20475;-66
2021/10/27 01:05:49;;;;;;;7.23;3.10;;;13.20;99.90;;;;;;5040810;28;20848;-65
2021/10/27 01:08:20;;;;;;;9.30;3.90;;;13.10;99.90;;;;;;5044033;28;20463;-66
2021/10/27 01:10:53;;;;;;;9.93;3.53;;;13.10;99.90;;;;;;5043663;28;20834;-66
2021/10/27 01:13:24;;;;;;;7.73;3.13;;;13.10;99.90;;;;;;5037447;28;20460;-63
2021/10/27 01:15:55;;;;;;;6.93;2.93;;;13.10;99.90;;;;;;5046678;28;20860;-66
2021/10/27 01:18:26;;;;;;;5.77;3.03;;;13.10;99.90;;;;;;5039063;28;20467;-65
2021/10/27 01:20:59;;;;;;;5.40;3.30;;;13.00;99.90;;;;;;5046818;28;20593;-67
2021/10/27 01:23:29;;;;;;;7.53;3.20;;;13.00;99.90;;;;;;5046284;28;20464;-66
2021/10/27 01:26:05;;;;;;;4.30;2.90;;;13.00;99.90;;;;;;5047503;28;20911;-66
2021/10/27 01:28:41;;;;;;;7.43;4.37;;;13.00;99.90;;;;;;5044252;28;20490;-67
2021/10/27 01:31:14;;;;;;;8.60;4.90;;;13.00;99.90;;;;;;5036284;28;20798;-65
2021/10/27 01:33:46;;;;;;;7.63;4.40;;;13.00;99.90;;;;;;5040927;28;20932;-65
2021/10/27 01:36:20;;;;;;;8.10;4.43;;;13.00;99.90;;;;;;5046147;28;20460;-67
2021/10/27 01:38:51;;;;;;;11.73;5.03;;;12.90;99.90;;;;;;5046123;28;20980;-66
2021/10/27 01:41:21;;;;;;;8.40;4.40;;;12.90;99.90;;;;;;5040110;28;20480;-65
2021/10/27 01:43:55;;;;;;;11.23;4.27;;;12.80;99.90;;;;;;5046129;28;20491;-65
2021/10/27 01:46:29;;;;;;;8.57;4.97;;;12.80;99.90;;;;;;5047413;28;20480;-64
2021/10/27 01:49:01;;;;;;;11.07;5.50;;;12.70;99.90;;;;;;5039736;28;20447;-67
2021/10/27 01:51:33;;;;;;;8.93;5.80;;;12.70;99.90;;;;;;5034684;28;20544;-66
2021/10/27 01:54:05;;;;;;;12.13;7.20;;;12.70;99.90;;;;;;5035935;28;20972;-65
2021/10/27 01:56:36;;;;;;;14.23;5.20;;;12.70;99.90;;;;;;5042265;28;20464;-68
2021/10/27 01:59:07;;;;;;;13.00;5.70;;;12.70;99.90;;;;;;5037716;28;20479;-70
2021/10/27 02:01:38;;;;;;;11.67;5.70;;;12.70;99.90;;;;;;5045455;28;20464;-71
2021/10/27 02:04:09;;;;;;;17.03;6.60;;;12.70;99.90;;;;;;5032340;28;20472;-67
2021/10/27 02:06:42;;;;;;;10.63;6.53;;;12.60;99.90;;;;;;5043813;28;20488;-67
2021/10/27 02:09:13;;;;;;;12.83;6.87;;;12.50;99.90;;;;;;5045076;28;20814;-68
2021/10/27 02:11:43;;;;;;;12.03;6.80;;;12.50;99.90;;;;;;5046700;28;20617;-67
2021/10/27 02:14:15;;;;;;;9.60;5.93;;;12.50;99.90;;;;;;5040026;28;20460;-67
2021/10/27 02:16:46;;;;;;;14.47;7.17;;;12.50;99.90;;;;;;5049470;28;20987;-67
2021/10/27 02:19:16;;;;;;;10.13;5.70;;;12.50;99.90;;;;;;5049352;28;20472;-68
2021/10/27 02:21:49;;;;;;;14.33;6.30;;;12.50;99.90;;;;;;5049794;28;20470;-69
2021/10/27 02:24:20;;;;;;;12.70;6.43;;;12.50;99.90;;;;;;5047561;28;20474;-68
2021/10/27 02:26:51;;;;;;;10.90;7.10;;;12.60;99.90;;;;;;5042545;28;20829;-69
2021/10/27 02:29:22;;;;;;;13.97;7.23;;;12.60;99.90;;;;;;5046925;28;20468;-70
2021/10/27 02:31:52;;;;;;;11.10;5.67;;;12.60;99.90;;;;;;5050300;28;20490;-69
2021/10/27 02:34:23;;;;;;;11.50;6.17;;;12.50;99.90;;;;;;5046682;28;20490;-69
2021/10/27 02:36:56;;;;;;;9.63;6.40;;;12.60;99.90;;;;;;5048379;28;20833;-69
2021/10/27 02:39:27;;;;;;;14.30;6.00;;;12.60;99.90;;;;;;5049067;28;20481;-68
2021/10/27 02:41:58;;;;;;;19.13;7.07;;;12.50;99.90;;;;;;5051731;28;20460;-68
2021/10/27 02:44:29;;;;;;;9.57;5.00;;;12.60;99.90;;;;;;5050172;28;20467;-72
2021/10/27 02:46:59;;;;;;;11.70;6.80;;;12.60;99.90;;;;;;5045340;28;20484;-72
2021/10/27 02:49:30;;;;;;;12.57;6.00;;;12.50;99.90;;;;;;5039165;28;20468;-71
2021/10/27 02:52:03;;;;;;;11.70;6.97;;;12.60;99.90;;;;;;5047995;28;20483;-71
2021/10/27 02:54:33;;;;;;;13.60;5.80;;;12.50;99.90;;;;;;5048293;28;20472;-67
2021/10/27 02:57:05;;;;;;;12.30;6.70;;;12.50;99.90;;;;;;5047706;28;20552;-68
2021/10/27 02:59:35;;;;;;;13.50;5.57;;;12.50;99.90;;;;;;5034461;28;20583;-70
2021/10/27 03:02:08;;;;;;;9.83;5.57;;;12.60;99.90;;;;;;5043572;28;20460;-74
2021/10/27 03:04:39;;;;;;;11.93;5.40;;;12.50;99.90;;;;;;5050028;28;20480;-72
2021/10/27 03:07:11;;;;;;;11.37;4.70;;;12.50;99.90;;;;;;5049442;28;20858;-71
2021/10/27 03:09:43;;;;;;;14.27;5.20;;;12.40;99.90;;;;;;5045060;28;20452;-72
2021/10/27 03:15:52;;;;;;;13.07;5.10;;;12.50;99.90;;;;;;5042155;28;20585;-74
2021/10/27 03:18:28;;;;;;;15.60;5.90;;;12.50;99.90;;;;;;5035735;28;20527;-68
2021/10/27 03:20:58;;;;;;;12.00;3.60;;;12.50;99.90;;;;;;5043802;28;20473;-68
2021/10/27 03:23:31;;;;;;;10.47;4.33;;;12.50;99.90;;;;;;5043479;28;20467;-68
2021/10/27 03:26:02;;;;;;;6.60;4.03;;;12.50;99.90;;;;;;5039234;28;20507;-68
2021/10/27 03:28:33;;;;;;;15.90;5.10;;;12.50;99.90;;;;;;5042530;28;20464;-68
2021/10/27 03:31:04;;;;;;;9.57;4.30;;;12.50;99.90;;;;;;5039517;28;20471;-69
2021/10/27 03:33:35;;;;;;;12.13;4.87;;;12.40;99.90;;;;;;5039558;28;20487;-68
2021/10/27 03:36:06;;;;;;;13.33;6.77;;;12.40;99.90;;;;;;5043551;28;20456;-67
2021/10/27 03:38:40;;;;;;;14.37;4.97;;;12.40;99.90;;;;;;5048112;28;20583;-67
2021/10/27 03:41:13;;;;;;;13.93;5.57;;;12.20;99.90;;;;;;5038162;28;21038;-67
2021/10/27 03:43:44;;;;;;;9.33;4.90;;;12.10;99.90;;;;;;5049609;28;20467;-67
2021/10/27 03:46:15;;;;;;;11.60;5.93;;;12.10;99.90;;;;;;5039815;28;20484;-68
2021/10/27 03:48:46;;;;;;;18.07;9.20;;;12.00;99.90;;;;;;5040698;28;20503;-68
2021/10/27 03:51:16;;;;;;;9.93;4.10;;;12.00;99.90;;;;;;5044577;28;20468;-67
2021/10/27 03:53:49;;;;;;;11.90;4.87;;;12.00;99.90;;;;;;5050202;28;20452;-68
2021/10/27 03:56:20;;;;;;;14.50;7.40;;;12.10;99.90;;;;;;5043224;28;20810;-69
2021/10/27 03:58:51;;;;;;;8.77;4.23;;;12.10;99.90;;;;;;5048132;28;20468;-68
2021/10/27 04:01:22;;;;;;;10.80;5.03;;;12.10;99.90;;;;;;5036779;28;20472;-68
2021/10/27 04:03:53;;;;;;;7.07;3.00;;;12.30;99.90;;;;;;5032875;28;20933;-67
2021/10/27 04:06:23;;;;;;;10.00;4.60;;;12.30;99.90;;;;;;5044998;28;20884;-68
2021/10/27 04:08:56;;;;;;;7.43;4.50;;;12.30;99.90;;;;;;5049332;28;20975;-68
2021/10/27 04:11:27;;;;;;;9.97;4.63;;;12.30;99.90;;;;;;5044581;28;20479;-68
2021/10/27 04:13:57;;;;;;;10.10;4.20;;;12.30;99.90;;;;;;5042429;28;20510;-67
2021/10/27 04:16:28;;;;;;;10.40;4.27;;;12.40;99.90;;;;;;5041182;28;20479;-68
2021/10/27 04:18:59;;;;;;;14.10;4.50;;;12.40;99.90;;;;;;5036823;28;20477;-68
2021/10/27 04:21:30;;;;;;;7.70;3.87;;;12.40;99.90;;;;;;5038766;28;20469;-68
2021/10/27 04:24:02;;;;;;;7.93;3.90;;;12.40;99.90;;;;;;5036728;28;20838;-68
2021/10/27 04:26:34;;;;;;;10.27;3.97;;;12.50;99.90;;;;;;5049150;28;20483;-68
2021/10/27 04:29:05;;;;;;;11.97;4.43;;;12.50;99.90;;;;;;5044599;28;20493;-67
2021/10/27 04:31:36;;;;;;;8.47;4.93;;;12.50;99.90;;;;;;5035336;28;20483;-68
2021/10/27 04:34:10;;;;;;;8.00;4.50;;;12.60;99.90;;;;;;5036819;28;20864;-68
2021/10/27 04:36:41;;;;;;;7.83;4.37;;;12.60;99.90;;;;;;5035869;28;20452;-68
2021/10/27 04:39:13;;;;;;;9.47;4.40;;;12.50;99.90;;;;;;5048467;28;20448;-68
2021/10/27 04:41:44;;;;;;;13.63;4.67;;;12.50;99.90;;;;;;5041421;28;20469;-68
2021/10/27 04:44:15;;;;;;;10.30;5.60;;;12.50;99.90;;;;;;5040531;28;20993;-68
2021/10/27 04:46:46;;;;;;;9.73;5.20;;;12.50;99.90;;;;;;5042416;28;20837;-67
2021/10/27 04:49:17;;;;;;;13.50;7.63;;;12.50;99.90;;;;;;5030994;28;20983;-68
2021/10/27 04:51:47;;;;;;;8.00;6.10;;;12.50;99.90;;;;;;5042738;28;20475;-68
2021/10/27 04:54:22;;;;;;;12.67;6.50;;;12.50;99.90;;;;;;5032759;28;20483;-68
2021/10/27 04:56:55;;;;;;;11.07;6.53;;;12.50;99.90;;;;;;5045759;28;20448;-68
2021/10/27 04:59:32;;;;;;;18.60;6.57;;;12.50;99.90;;;;;;5046540;28;20806;-69
2021/10/27 05:02:04;;;;;;;13.13;7.13;;;12.50;99.90;;;;;;5046019;28;20459;-67
2021/10/27 05:04:38;;;;;;;15.00;7.20;;;12.50;99.90;;;;;;5045562;28;20457;-67
2021/10/27 05:07:11;;;;;;;9.60;6.83;;;12.50;99.90;;;;;;5044724;28;20484;-67
2021/10/27 05:09:44;;;;;;;12.10;6.60;;;12.50;99.90;;;;;;5044389;28;20469;-67
2021/10/27 05:12:15;;;;;;;13.83;6.60;;;12.50;99.90;;;;;;5035390;28;20507;-66
2021/10/27 05:14:47;;;;;;;10.87;6.30;;;12.60;99.90;;;;;;5044735;28;20464;-68
2021/10/27 05:17:18;;;;;;;9.73;5.80;;;12.50;99.90;;;;;;5045891;28;20460;-68
2021/10/27 05:19:49;;;;;;;10.40;6.10;;;12.50;99.90;;;;;;5038009;28;20471;-65
2021/10/27 05:22:20;;;;;;;8.50;4.90;;;12.60;99.90;;;;;;5030394;28;20983;-66
2021/10/27 05:24:53;;;;;;;7.67;5.70;;;12.60;99.90;;;;;;5041207;28;20563;-66
2021/10/27 05:27:24;;;;;;;10.13;5.80;;;12.70;99.90;;;;;;5040690;28;20550;-67
2021/10/27 05:29:54;;;;;;;11.77;6.57;;;12.60;99.90;;;;;;5032212;28;20462;-66
2021/10/27 05:32:25;;;;;;;8.40;5.53;;;12.60;99.90;;;;;;5042308;28;20487;-66
2021/10/27 05:34:56;;;;;;;11.37;6.80;;;12.50;99.90;;;;;;5040636;28;20514;-67
2021/10/27 05:37:28;;;;;;;7.60;6.17;;;12.50;99.90;;;;;;5039649;28;20472;-66
2021/10/27 05:40:00;;;;;;;7.73;6.53;;;12.40;99.90;;;;;;5034753;28;20498;-66
2021/10/27 05:42:32;;;;;;;9.50;6.83;;;12.40;99.90;;;;;;5042585;28;20467;-67
2021/10/27 05:45:04;;;;;;;13.27;6.33;;;12.50;99.90;;;;;;5046729;28;20842;-67
2021/10/27 05:47:37;;;;;;;10.00;6.23;;;12.50;99.90;;;;;;5040817;28;20491;-66
2021/10/27 05:50:22;;;;;;;9.10;6.10;;;12.50;99.90;;;;;;5045786;28;20472;-67
2021/10/27 05:55:43;;;;;;;11.13;5.63;;;12.50;99.90;;;;;;5041725;28;20462;-67
2021/10/27 05:58:13;;;;;;;11.33;5.30;;;12.50;99.90;;;;;;5047669;28;20953;-67
2021/10/27 06:00:46;;;;;;;11.87;5.20;;;12.50;99.90;;;;;;5048793;28;20462;-67
2021/10/27 06:03:17;;;;;;;7.50;4.57;;;12.60;99.90;;;;;;5049795;28;20887;-67
2021/10/27 06:05:48;;;;;;;8.00;4.13;;;12.50;99.90;;;;;;5048736;28;20854;-67
2021/10/27 06:08:18;;;;;;;7.60;4.30;;;12.50;99.90;;;;;;5046911;28;20480;-67
2021/10/27 06:10:55;;;;;;;8.23;5.07;;;12.50;99.90;;;;;;5041076;28;20460;-67
2021/10/27 06:13:32;;;;;;;6.80;4.10;;;12.40;99.90;;;;;;5039163;28;20472;-66
2021/10/27 06:16:03;;;;;;;10.00;4.83;;;12.40;99.90;;;;;;5038251;28;20467;-66
2021/10/27 06:18:34;;;;;;;8.30;4.23;;;12.40;99.90;;;;;;5047151;28;20464;-66
2021/10/27 06:21:05;;;;;;;6.80;4.23;;;12.40;99.90;;;;;;5051318;28;20962;-66
2021/10/27 06:23:36;;;;;;;11.27;4.70;;;12.40;99.90;;;;;;5047672;28;20518;-67
2021/10/27 06:26:09;;;;;;;6.90;4.60;;;12.30;99.90;;;;;;5048441;28;20466;-66
2021/10/27 06:28:43;;;;;;;5.10;4.60;;;12.40;99.90;;;;;;5043857;28;20518;-66
2021/10/27 06:31:19;;;;;;;11.97;4.80;;;12.40;99.90;;;;;;5039030;28;20472;-67
2021/10/27 06:33:56;;;;;;;6.47;4.33;;;12.40;99.90;;;;;;5046721;28;20499;-67
2021/10/27 06:36:31;;;;;;;9.30;4.00;;;12.50;99.90;;;;;;5040577;28;20905;-66
2021/10/27 06:39:22;;;;;;;11.93;4.90;;;12.40;99.90;;;;;;5039331;28;20468;-67
2021/10/27 06:47:31;;;;;;;10.07;4.77;;;12.40;99.90;;;;;;5046204;28;20587;-66
2021/10/27 06:50:01;;;;;;;10.23;4.80;;;12.30;99.90;;;;;;5047936;28;20470;-67
2021/10/27 06:52:33;;;;;;;11.13;4.60;;;12.30;99.90;;;;;;5047197;28;20491;-67
2021/10/27 06:55:04;;;;;;;7.90;4.50;;;12.30;99.90;;;;;;5047632;28;20471;-67
2021/10/27 06:57:37;;;;;;;7.37;5.00;;;12.30;99.90;;;;;;5043535;28;20468;-67
2021/10/27 07:00:18;;;;;;;9.70;3.60;;;12.30;99.90;;;;;;5039722;28;21039;-67
2021/10/27 07:03:16;;;;;;;11.67;5.10;;;12.40;99.90;;;;;;5042188;28;20460;-67
2021/10/27 07:16:55;;;;;;;11.20;4.47;;;12.20;99.90;;;;;;5031470;28;20469;-67
2021/10/27 07:19:26;;;;;;;8.60;4.10;;;12.20;99.90;;;;;;5037597;28;20544;-67
2021/10/27 07:21:57;;;;;;;10.13;5.17;;;12.10;99.90;;;;;;5043412;28;20472;-67
2021/10/27 07:24:29;;;;;;;7.20;3.87;;;12.00;99.90;;;;;;5046770;28;20632;-68
2021/10/27 07:27:04;;;;;;;7.27;3.97;;;12.00;99.90;;;;;;5048816;28;20640;-67
2021/10/27 07:29:36;;;;;;;8.70;3.63;;;12.00;99.90;;;;;;5042143;28;20502;-67
2021/10/27 07:32:09;;;;;;;12.50;5.30;;;11.90;99.90;;;;;;5048993;28;20884;-67
2021/10/27 07:34:42;;;;;;;9.03;4.00;;;11.80;99.90;;;;;;5048520;28;20490;-67
2021/10/27 07:42:49;;;;;;;10.47;3.90;;;11.50;99.90;;;;;;5048282;28;20647;-67
2021/10/27 07:45:23;;;;;;;12.23;4.77;;;11.40;99.90;;;;;;5044069;28;20482;-66
2021/10/27 07:47:55;;;;;;;16.30;5.00;;;11.40;99.90;;;;;;5039863;28;20487;-67
2021/10/27 07:50:27;;;;;;;7.67;4.90;;;11.30;99.90;;;;;;5043965;28;20547;-67
2021/10/27 07:53:00;;;;;;;13.80;5.20;;;11.20;99.90;;;;;;5034849;28;20614;-67
2021/10/27 07:55:31;;;;;;;9.57;4.93;;;11.20;99.90;;;;;;5039875;28;20552;-67
2021/10/27 07:58:02;;;;;;;13.77;5.20;;;11.10;99.90;;;;;;5037820;28;20468;-67
2021/10/27 08:00:35;;;;;;;11.43;5.33;;;11.10;99.90;;;;;;5042479;28;20477;-67
2021/10/27 08:03:06;;;;;;;13.23;5.20;;;11.00;99.90;;;;;;5039429;28;20526;-67
2021/10/27 08:05:40;;;;;;;11.93;5.70;;;11.10;99.90;;;;;;5041569;28;20476;-67
2021/10/27 08:08:12;;;;;;;14.70;5.23;;;11.10;99.90;;;;;;5041700;28;20516;-67
2021/10/27 08:10:43;;;;;;;14.60;5.23;;;11.20;99.90;;;;;;5038439;28;20559;-67
2021/10/27 08:13:14;;;;;;;12.30;4.50;;;11.20;99.90;;;;;;5046542;28;20878;-67
2021/10/27 08:15:47;;;;;;;12.43;4.60;;;11.30;99.90;;;;;;5047640;28;20903;-67
2021/10/27 08:18:19;;;;;;;11.20;6.17;;;11.40;99.90;;;;;;5047076;28;20938;-67
2021/10/27 08:20:50;;;;;;;21.37;6.37;;;11.50;99.90;;;;;;5043501;28;20555;-67
2021/10/27 08:23:26;;;;;;;14.20;5.80;;;11.60;99.90;;;;;;5046862;28;20492;-67
2021/10/27 08:25:58;;;;;;;15.57;6.07;;;11.60;99.90;;;;;;5039865;28;21024;-67
2021/10/27 08:28:34;;;;;;;15.40;6.20;;;11.60;99.90;;;;;;5044450;28;20496;-68
2021/10/27 08:31:12;;;;;;;17.40;6.00;;;11.70;99.90;;;;;;5038449;28;20569;-67
2021/10/27 08:33:50;;;;;;;16.33;5.80;;;11.70;99.90;;;;;;5046722;28;20571;-68
2021/10/27 08:36:21;;;;;;;10.90;4.83;;;11.70;99.90;;;;;;5046914;28;20558;-67
2021/10/27 08:38:52;;;;;;;15.33;6.13;;;11.70;99.90;;;;;;5048339;28;20467;-67
2021/10/27 08:41:42;;;;;;;11.23;5.10;;;11.70;99.90;;;;;;5046105;28;20479;-67
2021/10/27 08:44:13;;;;;;;14.03;6.23;;;11.80;99.90;;;;;;5045653;28;20521;-67
2021/10/27 08:46:47;;;;;;;12.37;5.07;;;11.70;99.90;;;;;;5038908;28;20464;-67
2021/10/27 08:49:20;;;;;;;15.80;5.50;;;11.70;99.90;;;;;;5044851;28;20483;-67
2021/10/27 08:51:52;;;;;;;10.40;5.13;;;11.60;99.90;;;;;;5046782;28;20682;-67
2021/10/27 08:54:23;;;;;;;12.97;5.27;;;11.50;99.90;;;;;;5036655;28;20471;-66
2021/10/27 08:56:56;;;;;;;10.50;4.63;;;11.50;99.90;;;;;;5041052;28;20472;-67
2021/10/27 08:59:35;;;;;;;8.63;5.10;;;11.40;99.90;;;;;;5039520;28;20544;-68
2021/10/27 09:02:23;;;;;;;15.60;4.67;;;11.50;99.90;;;;;;5042455;28;20555;-67
2021/10/27 09:05:06;;;;;;;13.20;5.00;;;11.60;99.90;;;;;;5045576;28;20526;-67
2021/10/27 09:07:55;;;;;;;15.00;3.87;;;11.50;99.90;;;;;;5036839;28;21052;-67
2021/10/27 09:14:23;;;;;;;18.33;4.53;;;11.50;99.90;;;;;;5041685;28;20498;-67
2021/10/27 09:34:04;;;;;;;15.30;5.43;;;11.50;99.90;;;;;;5040643;28;20962;-67
2021/10/27 09:36:50;;;;;;;10.33;5.43;;;11.50;99.90;;;;;;5047246;28;20810;-67
2021/10/27 09:39:43;;;;;;;11.87;4.77;;;11.40;99.90;;;;;;5040086;28;20461;-67
2021/10/27 09:42:36;;;;;;;16.80;5.53;;;11.40;99.90;;;;;;5037775;28;20502;-67
2021/10/27 10:05:21;;;;;;;15.33;5.70;;;11.50;99.90;;;;;;5028989;28;20967;-66
2021/10/27 10:07:53;;;;;;;18.33;5.27;;;11.60;99.90;;;;;;5042570;28;20464;-65
2021/10/27 10:10:25;;;;;;;18.23;5.53;;;11.60;99.90;;;;;;5044239;28;20827;-66
2021/10/27 10:12:56;;;;;;;16.63;5.90;;;11.60;99.90;;;;;;5034152;28;20685;-66
2021/10/27 10:15:28;;;;;;;14.70;4.83;;;11.60;99.90;;;;;;5046651;28;20964;-66
2021/10/27 10:17:59;;;;;;;21.60;5.60;;;11.60;99.90;;;;;;5043242;28;20516;-65
2021/10/27 10:20:30;;;;;;;13.70;6.23;;;11.60;99.90;;;;;;5035529;28;20978;-66
2021/10/27 10:23:24;;;;;;;10.67;4.80;;;11.60;99.90;;;;;;5042924;28;20486;-66
2021/10/27 10:25:58;;;;;;;16.63;5.23;;;11.60;99.90;;;;;;5042208;28;20844;-66
2021/10/27 10:28:30;;;;;;;11.23;4.33;;;11.60;99.90;;;;;;5043879;28;20474;-66
2021/10/27 10:31:02;;;;;;;12.30;4.80;;;11.60;99.90;;;;;;5038710;28;20462;-66
2021/10/27 10:33:42;;;;;;;15.80;5.10;;;11.70;99.90;;;;;;5039298;28;20464;-66
2021/10/27 10:36:30;;;;;;;13.77;4.70;;;11.80;99.90;;;;;;5043426;28;20472;-66
2021/10/27 10:39:23;;;;;;;18.33;5.83;;;11.80;99.90;;;;;;5045321;28;20452;-66
2021/10/27 10:42:07;;;;;;;18.27;5.47;;;11.80;99.90;;;;;;5040500;28;20476;-68
2021/10/27 11:24:01;;;;;;;8.83;4.20;;;11.80;99.90;;;;;;4967454;28;20464;-67
2021/10/27 11:37:52;;;;;;;13.83;3.87;;;11.70;99.90;;;;;;5049491;28;20856;-66
2021/10/27 11:40:32;;;;;;;12.10;4.00;;;11.80;99.90;;;;;;5038682;28;20475;-67
2021/10/27 11:43:07;;;;;;;13.23;4.53;;;11.80;99.90;;;;;;5036763;28;20483;-68
2021/10/27 11:45:52;;;;;;;14.07;4.50;;;11.80;99.90;;;;;;5046374;28;20487;-67
2021/10/27 11:48:42;;;;;;;13.83;4.87;;;11.90;99.90;;;;;;5040850;28;20538;-67
2021/10/27 11:51:14;;;;;;;11.83;3.97;;;11.90;99.90;;;;;;5044976;28;20570;-67
2021/10/27 11:53:47;;;;;;;13.47;4.67;;;11.90;99.90;;;;;;5045287;28;20474;-66
2021/10/27 11:56:20;;;;;;;10.33;5.00;;;11.80;99.90;;;;;;5036041;28;20475;-67
2021/10/27 11:58:54;;;;;;;13.13;4.77;;;11.80;99.90;;;;;;5047783;28;20462;-66
2021/10/27 12:01:28;;;;;;;19.20;5.87;;;11.80;99.90;;;;;;5048636;28;20460;-67
2021/10/27 12:04:02;;;;;;;15.43;5.37;;;11.90;99.90;;;;;;5042291;28;20460;-67
2021/10/27 12:06:47;;;;;;;12.00;4.77;;;11.80;99.90;;;;;;5047367;28;20478;-67
2021/10/27 12:09:44;;;;;;;15.33;4.60;;;11.80;99.90;;;;;;5035372;28;20449;-67
2021/10/27 12:12:19;;;;;;;15.60;5.47;;;11.80;99.90;;;;;;5047553;28;20449;-67
2021/10/27 12:18:07;;;;;;;13.73;5.30;;;11.80;99.90;;;;;;5046502;28;21037;-67
2021/10/27 12:20:43;;;;;;;13.87;5.70;;;11.80;99.90;;;;;;5047454;28;20486;-67
2021/10/27 12:23:21;;;;;;;12.77;5.57;;;11.70;99.90;;;;;;5047852;28;20513;-67
2021/10/27 12:25:54;;;;;;;11.80;6.37;;;11.80;99.90;;;;;;5039383;28;20463;-67
2021/10/27 12:28:30;;;;;;;13.63;5.35;;;11.80;99.90;;;;;;5044236;28;20465;-66
2021/10/27 12:31:18;;;;;;;14.20;4.80;;;11.80;99.90;;;;;;5036853;28;20233;-67
2021/10/27 12:33:51;;;;;;;20.37;4.90;;;11.80;99.90;;;;;;5045238;28;20480;-66
2021/10/27 12:36:28;;;;;;;13.87;4.83;;;11.80;99.90;;;;;;5045419;28;20839;-66
2021/10/27 12:39:18;;;;;;;16.63;4.70;;;11.80;99.90;;;;;;5039478;28;20472;-66
2021/10/27 12:42:02;;;;;;;13.43;5.57;;;11.70;99.90;;;;;;5043681;28;20464;-67
2021/10/27 12:44:34;;;;;;;18.27;5.30;;;11.80;99.90;;;;;;5041740;28;20482;-67
2021/10/27 12:47:16;;;;;;;20.37;5.53;;;11.80;99.90;;;;;;5045811;28;20464;-67
2021/10/27 12:49:49;;;;;;;11.67;5.07;;;11.80;99.90;;;;;;5044716;28;20460;-67
2021/10/27 12:52:30;;;;;;;16.43;5.83;;;11.80;99.90;;;;;;5046645;28;20488;-66
2021/10/27 12:55:20;;;;;;;14.73;5.97;;;11.80;99.90;;;;;;5046991;28;20965;-67
2021/10/27 12:57:57;;;;;;;18.97;5.47;;;11.80;99.90;;;;;;5042516;28;20492;-67
2021/10/27 13:00:42;;;;;;;16.47;5.57;;;11.70;99.90;;;;;;5040680;28;20499;-67
2021/10/27 13:03:37;;;;;;;14.23;5.80;;;11.70;99.90;;;;;;5046783;28;20460;-67
2021/10/27 13:14:50;;;;;;;14.03;5.10;;;11.70;99.90;;;;;;5046293;28;20523;-67
2021/10/27 13:17:40;;;;;;;13.83;5.40;;;11.70;99.90;;;;;;5046599;28;20989;-67
2021/10/27 13:23:24;;;;;;;8.40;3.80;;;11.80;99.90;;;;;;5041750;28;20540;-67
2021/10/27 13:31:31;;;;;;;12.90;5.80;;;11.80;99.90;;;;;;5046225;28;20492;-67
2021/10/27 13:34:02;;;;;;;14.37;7.67;;;11.80;99.90;;;;;;5045395;28;20787;-67
2021/10/27 13:36:33;;;;;;;20.33;8.00;;;11.80;99.90;;;;;;5034982;28;20802;-67
2021/10/27 13:39:05;;;;;;;16.50;7.67;;;11.80;99.90;;;;;;5032179;28;20480;-67
2021/10/27 13:41:38;;;;;;;9.77;5.90;;;11.80;99.90;;;;;;5043480;28;20457;-70
2021/10/27 13:44:14;;;;;;;21.43;5.33;;;11.80;99.90;;;;;;5046514;28;20558;-67
2021/10/27 13:57:40;;;;;;;12.73;5.90;;;11.80;99.90;;;;;;5043788;28;20468;-67
2021/10/27 13:58:37;;;;;;;13.13;5.70;;;11.60;99.90;;;;;;5042321;28;20915;-68
2021/10/27 14:07:06;;;;;;;9.30;4.00;;;11.60;99.90;;;;;;5048321;28;20456;-67
2021/10/27 14:09:41;;;;;;;18.13;4.97;;;11.50;99.90;;;;;;5044540;28;20464;-67
2021/10/27 14:12:24;;;;;;;17.17;5.80;;;11.50;99.90;;;;;;5049555;28;20475;-67
2021/10/27 14:15:19;;;;;;;16.87;5.80;;;11.40;99.90;;;;;;5044164;28;20468;-68
2021/10/27 14:18:17;;;;;;;16.67;4.70;;;11.40;99.90;;;;;;5050996;28;20456;-67
2021/10/27 14:41:23;;;;;;;14.97;4.90;;;10.90;99.90;;;;;;5052025;28;20787;-67
2021/10/27 15:20:20;;;;;;;9.80;4.90;;;11.60;99.90;;;;;;5045310;28;20860;-68
2021/10/27 15:23:02;;;;;;;14.13;5.77;;;11.70;99.90;;;;;;5049954;28;20448;-69
2021/10/27 15:34:06;;;;;;;17.50;5.83;;;12.20;99.90;;;;;;5033211;28;20521;-69
2021/10/27 15:36:55;;;;;;;15.53;5.50;;;12.20;99.90;;;;;;5042492;28;20478;-69
2021/10/27 15:42:31;;;;;;;6.57;3.97;;;12.40;99.90;;;;;;5048883;28;20799;-69
2021/10/27 15:45:20;;;;;;;12.47;5.77;;;12.40;99.90;;;;;;5038710;28;20974;-68
2021/10/27 15:50:44;;;;;;;14.70;4.90;;;12.50;99.90;;;;;;5044012;28;20578;-69
2021/10/27 15:53:15;;;;;;;13.67;5.93;;;12.50;99.90;;;;;;5043777;28;20496;-68
2021/10/27 15:55:47;;;;;;;14.27;5.10;;;12.50;99.90;;;;;;5046255;28;20468;-69
2021/10/27 15:58:18;;;;;;;13.23;4.97;;;12.50;99.90;;;;;;5048451;28;20460;-68
2021/10/27 16:00:49;;;;;;;18.60;5.23;;;12.50;99.90;;;;;;5034369;28;20522;-68
2021/10/27 16:03:20;;;;;;;13.63;5.23;;;12.50;99.90;;;;;;5039397;28;20877;-69
2021/10/27 16:05:55;;;;;;;14.73;4.53;;;12.40;99.90;;;;;;5040161;28;20460;-69
2021/10/27 16:08:30;;;;;;;14.73;5.10;;;12.50;99.90;;;;;;5046469;28;20472;-69
2021/10/27 16:11:02;;;;;;;12.83;4.60;;;12.50;99.90;;;;;;5050127;28;20486;-70
2021/10/27 16:13:33;;;;;;;11.60;5.23;;;12.70;99.90;;;;;;5046325;28;20483;-69
2021/10/27 16:16:04;;;;;;;12.33;4.87;;;12.80;99.90;;;;;;5047970;28;20468;-68
2021/10/27 16:18:36;;;;;;;11.33;4.83;;;12.80;99.90;;;;;;5042588;28;20477;-68
2021/10/27 16:21:07;;;;;;;13.13;5.43;;;12.90;99.90;;;;;;5049243;28;20926;-67
2021/10/27 16:23:38;;;;;;;13.50;6.00;;;12.90;99.90;;;;;;5035967;28;20567;-68
2021/10/27 16:26:13;;;;;;;13.77;5.07;;;13.10;99.90;;;;;;5041377;28;20938;-68
2021/10/27 16:28:44;;;;;;;13.07;5.00;;;13.40;99.90;;;;;;5042431;28;20948;-70
2021/10/27 16:31:15;;;;;;;10.60;4.70;;;13.70;99.90;;;;;;5044798;28;20866;-67
2021/10/27 16:33:46;;;;;;;11.90;4.67;;;13.80;99.90;;;;;;5036989;28;20461;-68
2021/10/27 16:36:17;;;;;;;9.03;4.37;;;13.90;99.90;;;;;;5042287;28;20600;-69
2021/10/27 16:38:48;;;;;;;15.57;4.50;;;13.80;99.90;;;;;;5048357;28;20464;-67
2021/10/27 16:41:21;;;;;;;12.33;4.60;;;13.90;99.90;;;;;;5044186;28;20867;-67
2021/10/27 16:43:51;;;;;;;11.03;4.40;;;13.90;99.90;;;;;;5048737;28;20831;-68
2021/10/27 16:46:22;;;;;;;11.93;4.40;;;13.80;99.90;;;;;;5046683;28;20460;-68
2021/10/27 16:48:53;;;;;;;16.47;5.47;;;13.70;99.90;;;;;;5026433;28;20465;-68
2021/10/27 16:51:24;;;;;;;13.53;5.13;;;13.70;99.90;;;;;;5041589;28;20495;-68
2021/10/27 16:53:56;;;;;;;11.00;4.50;;;13.80;99.90;;;;;;5040670;28;20536;-68
2021/10/27 16:56:29;;;;;;;8.93;5.33;;;13.90;99.90;;;;;;5042457;28;20477;-68
2021/10/27 16:59:01;;;;;;;13.40;4.97;;;14.00;99.90;;;;;;5045941;28;20827;-66
2021/10/27 17:01:32;;;;;;;13.50;4.50;;;14.40;99.90;;;;;;5033697;28;20473;-66